Time;durP1;ratioP1;P1;durP2;ratioP2;P2;SDS_P1;SDS_P2;PMS_P1;PMS_P2;Temp;Humidity;BMP_temperature;BMP_pressure;BME280_temperature;BME280_humidity;BME280_pressure;Samples;Min_cycle;Max_cycle;Signal;HPM_P1;HPM_P2
2023/01/16 00:08:23;;;;;;;13.30;9.00;;;;;;;3.18;86.48;97612.39;435234;1256;99198;-39
2023/01/16 00:18:30;;;;;;;9.90;7.00;;;;;;;3.02;86.29;97612.00;435254;1251;112037;-40
2023/01/16 00:28:37;;;;;;;12.40;7.00;;;;;;;2.94;86.20;97608.14;435156;1256;108373;-39
2023/01/16 00:38:44;;;;;;;10.00;6.60;;;;;;;2.88;86.19;97608.80;435239;1257;99201;-42
2023/01/16 00:48:52;;;;;;;10.20;6.00;;;;;;;2.76;86.22;97605.48;435152;1256;108556;-40
2023/01/16 00:58:59;;;;;;;15.30;7.90;;;;;;;2.65;86.24;97602.07;435169;1257;98008;-40
2023/01/16 01:09:05;;;;;;;17.40;10.10;;;;;;;2.38;86.12;97598.26;435304;1251;110870;-40
2023/01/16 01:19:13;;;;;;;9.90;6.80;;;;;;;2.09;86.04;97593.02;435420;1257;107695;-40
2023/01/16 01:29:37;;;;;;;10.70;7.70;;;;;;;1.92;86.04;97597.10;435238;1251;99240;-39
2023/01/16 01:39:44;;;;;;;12.40;8.10;;;;;;;1.82;85.90;97594.80;435348;1254;111762;-40
2023/01/16 01:49:51;;;;;;;10.20;6.20;;;;;;;1.69;85.93;97592.71;435125;1251;108395;-40
2023/01/16 01:59:56;;;;;;;16.10;9.00;;;;;;;1.51;85.84;97585.41;435259;1257;99344;-41
2023/01/16 02:20:19;;;;;;;15.30;9.30;;;;;;;1.02;86.25;97564.69;435264;1251;106573;-39
2023/01/16 02:30:31;;;;;;;17.80;11.90;;;;;;;1.00;86.47;97557.15;435272;1251;98045;-39
2023/01/16 02:40:39;;;;;;;22.20;12.20;;;;;;;1.00;86.48;97550.66;435312;1257;106517;-40
2023/01/16 02:50:53;;;;;;;24.00;11.60;;;;;;;1.00;86.44;97546.05;436086;1250;98731;-41
2023/01/16 03:01:01;;;;;;;20.70;11.00;;;;;;;0.93;86.43;97552.63;434861;1253;380034;-39
2023/01/16 03:21:25;;;;;;;21.40;13.40;;;;;;;0.93;86.89;97535.17;435155;1254;99234;-40
2023/01/16 03:31:36;;;;;;;21.30;11.70;;;;;;;0.98;87.03;97544.66;435125;1257;109953;-38
2023/01/16 03:41:47;;;;;;;24.50;14.30;;;;;;;0.98;86.91;97534.16;435233;1254;99213;-42
2023/01/16 04:02:04;;;;;;;16.20;11.00;;;;;;;1.06;87.20;97518.28;435236;1251;107764;-40
2023/01/16 04:12:17;;;;;;;29.20;18.30;;;;;;;1.10;87.32;97503.27;435255;1255;98509;-39
2023/01/16 04:22:26;;;;;;;30.50;17.10;;;;;;;1.06;87.64;97488.48;435327;1256;112297;-40
2023/01/16 04:32:34;;;;;;;29.50;16.30;;;;;;;1.05;87.75;97473.90;435309;1264;108249;-40
2023/01/16 04:42:41;;;;;;;23.60;14.90;;;;;;;1.06;87.58;97468.66;435261;1256;98850;-40
2023/01/16 04:52:49;;;;;;;24.60;16.30;;;;;;;1.00;87.45;97448.83;435322;1251;111323;-40
2023/01/16 05:02:56;;;;;;;26.30;16.40;;;;;;;0.93;87.35;97432.39;435313;1252;108558;-39
2023/01/16 05:13:04;;;;;;;29.20;16.70;;;;;;;0.89;87.59;97423.00;435287;1251;98848;-40
2023/01/16 05:23:11;;;;;;;33.40;20.80;;;;;;;0.86;87.64;97417.48;435347;1253;107778;-39
2023/01/16 05:33:19;;;;;;;45.80;25.70;;;;;;;0.77;87.62;97413.07;435137;1256;99438;-40
2023/01/16 05:43:26;;;;;;;36.60;23.30;;;;;;;0.72;87.91;97408.09;435216;1256;112927;-40
2023/01/16 05:53:34;;;;;;;44.60;26.00;;;;;;;0.69;87.91;97403.59;435282;1251;107882;-40
2023/01/16 06:03:41;;;;;;;57.50;35.30;;;;;;;0.64;88.10;97391.34;435266;1253;97977;-40
2023/01/16 06:13:46;;;;;;;47.10;28.10;;;;;;;0.56;87.98;97388.16;435300;1256;108461;-40
2023/01/16 06:23:54;;;;;;;46.50;29.00;;;;;;;0.51;88.11;97378.98;435205;1251;97917;-40
2023/01/16 06:34:00;;;;;;;48.70;28.60;;;;;;;0.47;88.25;97380.02;435205;1255;111951;-39
2023/01/16 06:44:07;;;;;;;68.10;36.70;;;;;;;0.35;88.34;97369.58;435204;1251;109432;-40
2023/01/16 06:54:14;;;;;;;61.50;32.80;;;;;;;0.22;88.60;97372.61;435464;1256;97959;-40
2023/01/16 07:04:22;;;;;;;47.50;27.20;;;;;;;0.22;88.75;97364.92;435292;1253;112197;-38
2023/01/16 07:24:55;;;;;;;46.80;27.30;;;;;;;0.43;88.83;97343.59;435166;1255;99252;-41
2023/01/16 07:35:04;;;;;;;39.90;22.40;;;;;;;0.54;89.03;97334.94;435289;1256;108632;-41
2023/01/16 07:45:11;;;;;;;51.20;32.80;;;;;;;0.66;89.17;97326.63;435227;1251;97991;-39
2023/01/16 07:55:19;;;;;;;57.00;33.30;;;;;;;0.83;89.01;97321.23;435164;1256;110337;-39
2023/01/16 08:05:27;;;;;;;74.00;40.00;;;;;;;0.87;88.87;97306.34;435180;1251;107378;-40
2023/01/16 08:15:34;;;;;;;76.00;39.70;;;;;;;0.84;89.12;97296.78;435305;1256;99243;-40
2023/01/16 08:25:41;;;;;;;57.30;36.00;;;;;;;0.94;89.10;97281.80;435193;1251;111134;-39
2023/01/16 08:35:49;;;;;;;63.40;36.30;;;;;;;1.10;88.92;97261.16;435386;1251;107819;-40
2023/01/16 08:56:21;;;;;;;66.30;36.10;;;;;;;1.72;89.17;97246.76;434436;1253;108736;-40
2023/01/16 09:06:28;;;;;;;60.50;33.80;;;;;;;1.91;89.36;97238.06;434504;1257;98129;-40
2023/01/16 09:16:35;;;;;;;52.60;29.20;;;;;;;2.12;89.51;97217.16;434568;1255;111368;-39
2023/01/16 09:26:42;;;;;;;38.50;23.30;;;;;;;2.42;89.43;97207.41;434409;1253;108003;-40
2023/01/16 09:36:50;;;;;;;31.70;19.50;;;;;;;2.61;89.38;97200.27;434332;1253;99240;-40
2023/01/16 09:47:00;;;;;;;33.10;20.10;;;;;;;2.85;89.26;97185.27;434482;1253;108655;-42
2023/01/16 10:07:46;;;;;;;35.50;18.30;;;;;;;3.05;89.20;97139.04;434988;1253;114703;-41
2023/01/16 10:17:56;;;;;;;22.10;11.80;;;;;;;3.31;88.92;97106.34;434972;1253;107966;-40
2023/01/16 10:28:10;;;;;;;32.90;16.40;;;;;;;3.59;88.88;97091.46;435115;1252;99223;-41
2023/01/16 10:58:56;;;;;;;30.30;13.70;;;;;;;3.96;87.84;97036.52;435007;1253;112835;-40
2023/01/16 11:09:03;;;;;;;28.90;14.60;;;;;;;4.06;87.49;97014.67;435110;1253;108124;-39
2023/01/16 11:19:18;;;;;;;35.80;16.00;;;;;;;4.12;87.28;97001.89;435240;1255;99122;-39
2023/01/16 11:29:30;;;;;;;25.00;12.20;;;;;;;4.09;86.72;96978.49;435625;1253;112278;-41
2023/01/16 11:39:38;;;;;;;18.70;10.90;;;;;;;4.22;86.12;96954.02;434939;1252;109070;-41
2023/01/16 11:49:45;;;;;;;25.00;13.10;;;;;;;4.33;85.72;96919.19;434998;1253;97996;-40
2023/01/16 11:59:58;;;;;;;26.90;13.90;;;;;;;4.52;85.50;96905.96;434988;1253;110247;-39
2023/01/16 12:10:15;;;;;;;16.50;7.60;;;;;;;4.85;84.99;96895.80;434936;1259;107750;-41
2023/01/16 12:20:29;;;;;;;31.40;10.90;;;;;;;5.00;84.04;96874.88;434869;1253;99237;-40
2023/01/16 12:30:37;;;;;;;20.50;10.30;;;;;;;4.98;82.75;96843.66;435074;1257;111321;-40
2023/01/16 12:40:51;;;;;;;12.10;6.50;;;;;;;5.04;82.35;96823.12;435140;1259;107371;-40
2023/01/16 12:51:01;;;;;;;20.70;11.60;;;;;;;5.07;81.12;96805.61;435122;1256;99554;-39
2023/01/16 13:01:09;;;;;;;26.00;11.80;;;;;;;5.05;81.55;96788.77;435386;1256;111453;-41
2023/01/16 13:21:53;;;;;;;11.10;5.90;;;;;;;4.92;80.56;96757.65;435166;1256;98351;-40
2023/01/16 13:32:14;;;;;;;19.50;9.20;;;;;;;4.86;80.76;96748.23;435261;1256;108047;-40
2023/01/16 13:42:30;;;;;;;14.90;7.60;;;;;;;4.73;80.59;96727.05;435109;1256;99227;-39
2023/01/16 13:52:43;;;;;;;19.10;8.40;;;;;;;4.57;80.50;96708.52;435266;1256;110850;-40
2023/01/16 14:03:03;;;;;;;14.80;7.00;;;;;;;4.38;80.33;96701.88;435175;1255;108841;-39
2023/01/16 14:13:26;;;;;;;12.50;6.90;;;;;;;4.28;80.28;96686.45;435109;1256;99212;-39
2023/01/16 14:34:04;;;;;;;29.10;12.30;;;;;;;4.16;80.44;96655.00;435155;1256;107086;-40
2023/01/16 15:05:06;;;;;;;17.90;10.00;;;;;;;3.52;81.00;96620.43;435149;1256;108456;-42
2023/01/16 15:15:21;;;;;;;17.50;10.50;;;;;;;3.43;81.34;96607.36;435195;1256;98011;-39
2023/01/16 15:25:46;;;;;;;20.10;10.80;;;;;;;3.33;81.63;96599.13;435242;1266;112688;-41
2023/01/16 15:35:57;;;;;;;27.50;15.50;;;;;;;3.11;82.04;96578.08;435065;1266;108640;-41
2023/01/16 15:56:34;;;;;;;21.00;15.20;;;;;;;2.74;82.86;96541.43;435130;1255;108787;-40
2023/01/16 16:06:44;;;;;;;20.60;12.90;;;;;;;2.60;83.36;96522.43;435131;1256;99214;-41
2023/01/16 16:27:25;;;;;;;21.40;15.10;;;;;;;2.34;84.18;96493.42;435130;1256;108361;-40
2023/01/16 16:37:33;;;;;;;33.50;17.20;;;;;;;2.24;84.49;96484.70;435225;1257;98810;-40
2023/01/16 16:47:43;;;;;;;17.70;12.70;;;;;;;2.20;84.65;96455.27;435149;1253;108406;-39
2023/01/16 16:57:49;;;;;;;55.10;27.00;;;;;;;2.15;84.83;96436.70;435254;1257;99224;-39
2023/01/16 17:18:05;;;;;;;48.70;26.30;;;;;;;2.16;85.30;96415.18;435128;1256;107719;-40
2023/01/16 17:28:14;;;;;;;30.30;19.20;;;;;;;2.31;85.44;96396.85;435253;1256;99346;-40
2023/01/16 17:38:22;;;;;;;38.20;20.60;;;;;;;2.47;85.83;96383.35;435126;1266;107574;-40
2023/01/16 17:48:30;;;;;;;31.70;19.10;;;;;;;2.62;86.09;96365.05;435152;1257;98853;-40
2023/01/16 18:08:48;;;;;;;45.70;23.30;;;;;;;2.73;86.51;96335.89;435171;1256;107018;-39
2023/01/16 18:18:55;;;;;;;33.10;19.80;;;;;;;2.76;86.50;96336.94;435236;1258;98812;-41
2023/01/16 18:29:02;;;;;;;38.30;19.60;;;;;;;2.87;86.46;96316.86;435228;1255;108385;-41
2023/01/16 19:10:25;;;;;;;23.70;16.80;;;;;;;2.80;86.68;96214.08;435320;1267;99265;-40
2023/01/16 19:20:33;;;;;;;33.40;18.40;;;;;;;2.81;86.68;96200.31;435105;1257;107264;-40
2023/01/16 19:30:39;;;;;;;35.00;19.50;;;;;;;2.85;86.96;96186.23;435227;1254;99257;-40
2023/01/16 19:40:48;;;;;;;39.70;21.70;;;;;;;2.84;87.13;96165.45;435173;1257;111384;-40
2023/01/16 19:51:04;;;;;;;28.50;16.70;;;;;;;2.86;87.21;96144.14;435179;1257;107661;-38
2023/01/16 20:01:12;;;;;;;35.80;21.20;;;;;;;2.87;87.21;96121.53;435136;1257;99247;-41
2023/01/16 20:11:18;;;;;;;38.70;22.90;;;;;;;2.78;87.40;96115.30;435354;1257;108435;-40
2023/01/16 20:21:25;;;;;;;28.30;18.60;;;;;;;2.75;87.34;96106.50;435193;1252;99253;-39
2023/01/16 20:31:33;;;;;;;24.90;17.10;;;;;;;2.81;87.32;96094.41;435115;1254;111205;-40
2023/01/16 20:52:07;;;;;;;46.00;24.70;;;;;;;2.91;87.43;96062.08;435161;1254;99229;-39
2023/01/16 21:22:45;;;;;;;32.00;19.10;;;;;;;2.98;87.56;96030.52;435131;1265;112055;-39
2023/01/16 21:32:54;;;;;;;44.50;22.30;;;;;;;2.94;87.76;96014.24;435350;1254;109057;-40
2023/01/16 21:53:26;;;;;;;38.30;19.70;;;;;;;2.93;87.76;95993.50;435240;1258;110020;-39
2023/01/16 22:03:34;;;;;;;24.00;14.80;;;;;;;2.98;87.81;95997.73;435229;1254;99228;-39
2023/01/16 22:24:06;;;;;;;25.30;14.30;;;;;;;3.04;87.90;95986.50;435113;1254;107151;-40
2023/01/16 22:34:14;;;;;;;24.30;15.50;;;;;;;3.03;87.94;95977.77;435245;1254;97973;-39
2023/01/16 22:54:46;;;;;;;27.60;18.10;;;;;;;2.96;88.20;95953.08;435184;1258;99244;-40
2023/01/16 23:04:53;;;;;;;36.30;19.00;;;;;;;2.86;88.33;95947.30;435289;1257;111008;-40
2023/01/16 23:15:00;;;;;;;25.30;15.90;;;;;;;2.83;88.28;95935.50;435135;1253;108174;-40
2023/01/16 23:25:08;;;;;;;26.10;16.60;;;;;;;2.82;88.56;95932.15;435349;1254;99243;-41
2023/01/16 23:35:15;;;;;;;32.20;17.30;;;;;;;2.83;88.70;95922.71;435256;1253;108909;-42
2023/01/16 23:45:22;;;;;;;27.40;18.40;;;;;;;2.82;88.66;95910.13;435241;1256;99346;-40
2023/01/16 23:55:30;;;;;;;36.30;21.90;;;;;;;2.77;88.68;95890.10;435166;1253;111000;-40
